createdAt,value
2023-02-15T00:00:59.410Z,0
2023-02-15T00:01:59.132Z,0
2023-02-15T00:02:59.336Z,0
2023-02-15T00:03:59.659Z,0
2023-02-15T00:04:59.300Z,0
2023-02-15T00:05:59.665Z,0
2023-02-15T00:06:59.295Z,0
2023-02-15T00:07:59.026Z,0
2023-02-15T00:08:59.251Z,0
2023-02-15T00:09:59.294Z,0
2023-02-15T00:10:58.694Z,0
2023-02-15T00:11:59.445Z,0
2023-02-15T00:12:59.170Z,0
2023-02-15T00:13:58.855Z,0
2023-02-15T00:14:59.124Z,0
2023-02-15T00:15:59.034Z,0
2023-02-15T00:16:58.839Z,0
2023-02-15T00:17:59.322Z,0
2023-02-15T00:18:58.797Z,0
2023-02-15T00:19:59.441Z,0
2023-02-15T00:20:59.040Z,0
2023-02-15T00:21:59.037Z,0
2023-02-15T00:22:58.971Z,0
2023-02-15T00:23:58.947Z,0
2023-02-15T00:24:59.174Z,0
2023-02-15T00:25:59.429Z,0
2023-02-15T00:26:58.891Z,0
2023-02-15T00:27:58.858Z,0
2023-02-15T00:28:58.597Z,0
2023-02-15T00:29:58.974Z,0
2023-02-15T00:30:59.805Z,0
2023-02-15T00:32:00.290Z,0
2023-02-15T00:32:59.766Z,0
2023-02-15T00:33:59.946Z,0
2023-02-15T00:34:59.724Z,0
2023-02-15T00:36:00.401Z,0
2023-02-15T00:36:59.656Z,0
2023-02-15T00:37:59.604Z,0
2023-02-15T00:38:59.856Z,0
2023-02-15T00:39:59.358Z,0
2023-02-15T00:40:59.301Z,0
2023-02-15T00:41:59.562Z,0
2023-02-15T00:42:59.281Z,0
2023-02-15T00:43:59.536Z,0
2023-02-15T00:44:59.234Z,0
2023-02-15T00:46:00.007Z,0
2023-02-15T00:46:59.483Z,0
2023-02-15T00:47:58.922Z,0
2023-02-15T00:48:59.499Z,0
2023-02-15T00:49:59.144Z,0
2023-02-15T00:50:59.130Z,0
2023-02-15T00:51:59.794Z,0
2023-02-15T00:52:59.106Z,0
2023-02-15T00:53:59.377Z,0
2023-02-15T00:54:59.555Z,0
2023-02-15T00:55:59.808Z,0
2023-02-15T00:56:59.264Z,0
2023-02-15T00:57:59.238Z,0
2023-02-15T00:58:59.489Z,0
2023-02-15T00:59:58.689Z,0
2023-02-15T01:00:59.620Z,0
2023-02-15T01:01:58.905Z,0
2023-02-15T01:02:59.170Z,0
2023-02-15T01:03:58.677Z,0
2023-02-15T01:04:58.908Z,0
2023-02-15T01:05:59.392Z,0
2023-02-15T01:06:58.803Z,0
2023-02-15T01:08:01.780Z,0
2023-02-15T01:08:58.775Z,0
2023-02-15T01:09:59.015Z,0
2023-02-15T01:10:58.465Z,0
2023-02-15T01:11:58.705Z,0
2023-02-15T01:12:58.950Z,0
2023-02-15T01:13:58.976Z,0
2023-02-15T01:14:58.655Z,0
2023-02-15T01:15:59.487Z,0
2023-02-15T01:16:58.946Z,0
2023-02-15T01:17:58.881Z,0
2023-02-15T01:18:58.843Z,0
2023-02-15T01:19:58.800Z,0
2023-02-15T01:20:58.860Z,0
2023-02-15T01:21:58.785Z,0
2023-02-15T01:22:58.493Z,0
2023-02-15T01:23:59.161Z,0
2023-02-15T01:24:58.972Z,0
2023-02-15T01:25:58.468Z,0
2023-02-15T01:26:58.711Z,0
2023-02-15T01:27:58.914Z,0
2023-02-15T01:28:58.223Z,0
2023-02-15T01:29:59.103Z,0
2023-02-15T01:30:59.105Z,0
2023-02-15T01:31:59.330Z,0
2023-02-15T01:32:58.550Z,0
2023-02-15T01:34:30.606Z,0
2023-02-15T01:34:58.583Z,0
2023-02-15T01:35:58.590Z,0
2023-02-15T01:36:58.750Z,0
2023-02-15T01:37:58.464Z,0
2023-02-15T01:38:58.427Z,0
2023-02-15T01:39:58.780Z,0
2023-02-15T01:40:58.371Z,0
2023-02-15T01:41:58.159Z,0
2023-02-15T01:42:58.088Z,0
2023-02-15T01:43:58.916Z,0
2023-02-15T01:44:58.394Z,0
2023-02-15T01:45:59.190Z,0
2023-02-15T01:46:58.336Z,0
2023-02-15T01:47:58.586Z,0
2023-02-15T01:48:58.536Z,0
2023-02-15T01:49:58.252Z,0
2023-02-15T01:50:58.232Z,0
2023-02-15T01:51:58.580Z,0
2023-02-15T01:52:58.215Z,0
2023-02-15T01:53:58.958Z,0
2023-02-15T01:54:58.676Z,0
2023-02-15T01:55:59.166Z,0
2023-02-15T01:56:58.113Z,0
2023-02-15T01:57:58.367Z,0
2023-02-15T01:58:58.598Z,0
2023-02-15T01:59:57.805Z,0
2023-02-15T02:01:00.254Z,0
2023-02-15T02:01:58.880Z,0
2023-02-15T02:02:58.394Z,0
2023-02-15T02:03:58.497Z,0
2023-02-15T02:04:58.219Z,0
2023-02-15T02:05:58.444Z,0
2023-02-15T02:06:58.161Z,0
2023-02-15T02:07:57.636Z,0
2023-02-15T02:08:57.881Z,0
2023-02-15T02:09:57.854Z,0
2023-02-15T02:10:57.841Z,0
2023-02-15T02:11:58.429Z,0
2023-02-15T02:12:57.802Z,0
2023-02-15T02:13:58.278Z,0
2023-02-15T02:14:57.737Z,0
2023-02-15T02:15:58.343Z,0
2023-02-15T02:16:57.698Z,0
2023-02-15T02:17:58.210Z,0
2023-02-15T02:18:57.692Z,0
2023-02-15T02:19:57.120Z,0
2023-02-15T02:20:57.875Z,0
2023-02-15T02:21:57.867Z,0
2023-02-15T02:22:57.861Z,0
2023-02-15T02:23:58.064Z,0
2023-02-15T02:24:57.852Z,0
2023-02-15T02:25:57.812Z,0
2023-02-15T02:26:57.770Z,0
2023-02-15T02:27:58.087Z,0
2023-02-15T02:28:57.972Z,0
2023-02-15T02:29:58.254Z,0
2023-02-15T02:30:58.563Z,0
2023-02-15T02:31:58.045Z,0
2023-02-15T02:32:57.928Z,0
2023-02-15T02:33:57.602Z,0
2023-02-15T02:34:57.601Z,0
2023-02-15T02:35:57.826Z,0
2023-02-15T02:36:57.042Z,0
2023-02-15T02:37:57.645Z,0
2023-02-15T02:38:57.508Z,0
2023-02-15T02:39:57.506Z,0
2023-02-15T02:40:57.278Z,0
2023-02-15T02:41:57.468Z,0
2023-02-15T02:42:57.186Z,0
2023-02-15T02:43:57.777Z,0
2023-02-15T02:44:57.130Z,0
2023-02-15T02:45:57.380Z,0
2023-02-15T02:46:57.576Z,0
2023-02-15T02:47:57.581Z,0
2023-02-15T02:48:57.311Z,0
2023-02-15T02:49:57.043Z,0
2023-02-15T02:50:56.999Z,0
2023-02-15T02:51:57.517Z,0
2023-02-15T02:52:57.252Z,0
2023-02-15T02:53:56.950Z,0
2023-02-15T02:54:57.185Z,0
2023-02-15T02:55:57.205Z,0
2023-02-15T02:56:57.165Z,0
2023-02-15T02:57:57.154Z,0
2023-02-15T02:58:57.115Z,0
2023-02-15T02:59:57.459Z,0
2023-02-15T03:00:56.883Z,0
2023-02-15T03:01:57.735Z,0
2023-02-15T03:02:57.682Z,0
2023-02-15T03:03:56.740Z,0
2023-02-15T03:04:56.474Z,0
2023-02-15T03:05:56.718Z,0
2023-02-15T03:06:57.216Z,0
2023-02-15T03:07:56.707Z,0
2023-02-15T03:08:56.912Z,0
2023-02-15T03:09:56.885Z,0
2023-02-15T03:10:56.866Z,0
2023-02-15T03:11:56.869Z,0
2023-02-15T03:12:56.856Z,0
2023-02-15T03:13:56.301Z,0
2023-02-15T03:14:56.958Z,0
2023-02-15T03:15:57.429Z,0
2023-02-15T03:16:56.527Z,0
2023-02-15T03:17:56.493Z,0
2023-02-15T03:18:56.703Z,0
2023-02-15T03:19:56.697Z,0
2023-02-15T03:20:56.694Z,0
2023-02-15T03:21:56.906Z,0
2023-02-15T03:22:56.902Z,0
2023-02-15T03:23:56.599Z,0
2023-02-15T03:24:56.843Z,0
2023-02-15T03:25:56.325Z,0
2023-02-15T03:26:56.294Z,0
2023-02-15T03:27:56.563Z,0
2023-02-15T03:28:56.567Z,0
2023-02-15T03:29:56.358Z,0
2023-02-15T03:30:56.390Z,0
2023-02-15T03:31:57.582Z,0
2023-02-15T03:32:56.448Z,0
2023-02-15T03:49:58.534Z,0
2023-02-15T03:50:58.193Z,0
2023-02-15T03:51:58.188Z,0
2023-02-15T03:52:57.831Z,0
2023-02-15T03:53:58.378Z,0
2023-02-15T03:54:58.102Z,0
2023-02-15T03:55:58.029Z,0
2023-02-15T03:56:58.260Z,0
2023-02-15T03:57:58.245Z,0
2023-02-15T03:58:57.871Z,0
2023-02-15T03:59:57.944Z,0
2023-02-15T04:00:58.336Z,0
2023-02-15T04:01:57.928Z,0
2023-02-15T04:02:57.598Z,0
2023-02-15T04:03:57.874Z,0
2023-02-15T04:04:57.854Z,0
2023-02-15T04:05:58.294Z,0
2023-02-15T04:06:58.087Z,0
2023-02-15T04:07:57.560Z,0
2023-02-15T04:08:57.512Z,0
2023-02-15T04:09:57.791Z,0
2023-02-15T04:10:57.770Z,0
2023-02-15T04:11:57.213Z,0
2023-02-15T04:12:58.282Z,0
2023-02-15T04:13:57.837Z,0
2023-02-15T04:14:57.720Z,0
2023-02-15T04:15:58.011Z,0
2023-02-15T04:16:58.354Z,0
2023-02-15T04:17:57.684Z,0
2023-02-15T04:18:58.023Z,0
2023-02-15T04:19:57.925Z,0
2023-02-15T04:20:57.615Z,0
2023-02-15T04:21:58.305Z,0
2023-02-15T04:22:57.834Z,0
2023-02-15T04:23:57.816Z,0
2023-02-15T04:24:57.524Z,0
2023-02-15T04:25:58.927Z,0
2023-02-15T04:26:58.543Z,0
2023-02-15T04:27:58.912Z,0
2023-02-15T04:28:57.984Z,0
2023-02-15T04:29:58.977Z,0
2023-02-15T04:30:58.660Z,0
2023-02-15T04:31:59.269Z,0
2023-02-15T04:32:58.229Z,0
2023-02-15T04:33:58.676Z,0
2023-02-15T04:34:58.129Z,0
2023-02-15T04:35:58.653Z,0
2023-02-15T04:36:58.413Z,0
2023-02-15T04:37:58.712Z,0
2023-02-15T04:38:58.049Z,0
2023-02-15T04:39:58.300Z,0
2023-02-15T04:40:58.515Z,0
2023-02-15T04:41:58.349Z,0
2023-02-15T04:42:58.480Z,0
2023-02-15T04:43:58.196Z,0
2023-02-15T04:44:58.199Z,0
2023-02-15T04:45:58.956Z,0
2023-02-15T04:46:58.155Z,0
2023-02-15T04:47:58.146Z,0
2023-02-15T04:48:57.870Z,0
2023-02-15T04:50:00.304Z,0
2023-02-15T04:50:58.062Z,0
2023-02-15T04:51:58.315Z,0
2023-02-15T04:52:58.058Z,0
2023-02-15T04:53:58.397Z,0
2023-02-15T04:54:57.735Z,0
2023-02-15T04:55:58.325Z,0
2023-02-15T04:56:58.204Z,0
2023-02-15T04:57:57.944Z,0
2023-02-15T04:58:57.665Z,0
2023-02-15T04:59:57.673Z,0
2023-02-15T05:00:57.994Z,0
2023-02-15T05:01:57.879Z,0
2023-02-15T05:02:58.025Z,0
2023-02-15T05:03:58.219Z,0
2023-02-15T05:04:58.061Z,0
2023-02-15T05:05:57.514Z,0
2023-02-15T05:06:57.519Z,0
2023-02-15T05:07:57.775Z,0
2023-02-15T05:08:57.585Z,0
2023-02-15T05:09:58.122Z,0
2023-02-15T05:10:57.936Z,0
2023-02-15T05:11:57.927Z,0
2023-02-15T05:12:57.904Z,0
2023-02-15T05:13:57.361Z,0
2023-02-15T05:14:57.344Z,0
2023-02-15T05:15:57.835Z,0
2023-02-15T05:16:58.001Z,0
2023-02-15T05:17:57.837Z,0
2023-02-15T05:18:57.270Z,0
2023-02-15T05:19:57.752Z,0
2023-02-15T05:20:57.312Z,0
2023-02-15T05:21:56.955Z,0
2023-02-15T05:22:57.456Z,0
2023-02-15T05:23:57.179Z,0
2023-02-15T05:24:57.566Z,0
2023-02-15T05:25:57.801Z,0
2023-02-15T05:26:57.123Z,0
2023-02-15T05:27:56.841Z,0
2023-02-15T05:28:57.072Z,0
2023-02-15T05:29:57.665Z,0
2023-02-15T05:30:58.080Z,0
2023-02-15T05:31:58.403Z,0
2023-02-15T05:32:57.254Z,0
2023-02-15T05:33:57.506Z,0
2023-02-15T05:34:57.485Z,0
2023-02-15T05:35:56.701Z,0
2023-02-15T05:36:56.931Z,0
2023-02-15T05:37:57.166Z,0
2023-02-15T05:38:57.142Z,0
2023-02-15T05:39:57.105Z,0
2023-02-15T05:40:59.494Z,0
2023-02-15T05:41:57.413Z,0
2023-02-15T05:42:56.800Z,0
2023-02-15T05:43:57.048Z,0
2023-02-15T05:44:56.755Z,0
2023-02-15T05:45:56.959Z,0
2023-02-15T05:46:56.964Z,0
2023-02-15T05:47:56.696Z,0
2023-02-15T05:48:56.947Z,0
2023-02-15T05:49:56.704Z,0
2023-02-15T05:50:57.598Z,0
2023-02-15T05:51:57.856Z,0
2023-02-15T05:52:59.436Z,0
2023-02-15T05:53:57.811Z,0
2023-02-15T05:54:57.522Z,0
2023-02-15T05:55:57.250Z,0
2023-02-15T05:56:57.497Z,0
2023-02-15T05:57:57.867Z,0
2023-02-15T05:58:57.488Z,0
2023-02-15T05:59:57.186Z,0
2023-02-15T06:00:57.164Z,0
2023-02-15T06:01:57.153Z,0
2023-02-15T06:02:57.300Z,0
2023-02-15T06:03:58.018Z,0
2023-02-15T06:04:57.373Z,0
2023-02-15T06:05:57.570Z,0
2023-02-15T06:06:57.027Z,0
2023-02-15T06:07:57.270Z,0
2023-02-15T06:08:57.010Z,0
2023-02-15T06:09:56.719Z,0
2023-02-15T06:10:57.477Z,0
2023-02-15T06:11:57.188Z,0
2023-02-15T06:12:57.513Z,0
2023-02-15T06:13:57.512Z,0
2023-02-15T06:14:57.135Z,0
2023-02-15T06:15:57.605Z,0
2023-02-15T06:16:57.091Z,0
2023-02-15T06:17:57.085Z,0
2023-02-15T06:18:59.294Z,0
2023-02-15T06:19:57.096Z,5
2023-02-15T06:20:57.254Z,5
2023-02-15T06:21:57.000Z,5
2023-02-15T06:22:56.961Z,5
2023-02-15T06:23:57.441Z,5
2023-02-15T06:24:56.928Z,5
2023-02-15T06:25:57.146Z,5
2023-02-15T06:26:57.132Z,5
2023-02-15T06:27:57.123Z,5
2023-02-15T06:28:56.404Z,10
2023-02-15T06:29:57.553Z,10
2023-02-15T06:30:57.062Z,10
2023-02-15T06:31:57.608Z,10
2023-02-15T06:32:57.045Z,10
2023-02-15T06:33:56.771Z,10
2023-02-15T06:34:58.211Z,10
2023-02-15T06:35:56.701Z,15
2023-02-15T06:36:56.681Z,15
2023-02-15T06:37:56.675Z,15
2023-02-15T06:38:56.691Z,15
2023-02-15T06:39:56.872Z,15
2023-02-15T06:40:56.081Z,15
2023-02-15T06:41:56.677Z,15
2023-02-15T06:42:56.562Z,20
2023-02-15T06:43:56.024Z,20
2023-02-15T06:44:56.573Z,20
2023-02-15T06:45:56.881Z,20
2023-02-15T06:46:57.015Z,20
2023-02-15T06:47:56.945Z,20
2023-02-15T06:48:56.378Z,20
2023-02-15T06:49:56.620Z,25
2023-02-15T06:50:56.613Z,25
2023-02-15T06:51:56.577Z,25
2023-02-15T06:52:56.827Z,25
2023-02-15T06:53:56.268Z,25
2023-02-15T06:54:56.782Z,25
2023-02-15T06:55:56.386Z,25
2023-02-15T06:56:56.206Z,30
2023-02-15T06:57:58.963Z,30
2023-02-15T06:58:55.988Z,30
2023-02-15T06:59:56.655Z,30
2023-02-15T07:00:56.773Z,30
2023-02-15T07:01:57.120Z,30
2023-02-15T07:02:56.339Z,30
2023-02-15T07:03:56.317Z,30
2023-02-15T07:04:56.555Z,35
2023-02-15T07:05:56.033Z,35
2023-02-15T07:06:58.717Z,35
2023-02-15T07:07:56.244Z,35
2023-02-15T07:08:56.243Z,35
2023-02-15T07:09:56.007Z,35
2023-02-15T07:10:56.503Z,35
2023-02-15T07:11:56.186Z,35
2023-02-15T07:12:56.183Z,40
2023-02-15T07:13:56.186Z,40
2023-02-15T07:14:56.388Z,40
2023-02-15T07:15:56.577Z,40
2023-02-15T07:16:56.179Z,40
2023-02-15T07:17:56.407Z,40
2023-02-15T07:18:56.042Z,40
2023-02-15T07:19:55.751Z,40
2023-02-15T07:20:55.979Z,45
2023-02-15T07:21:56.036Z,45
2023-02-15T07:22:56.269Z,45
2023-02-15T07:23:55.912Z,45
2023-02-15T07:24:55.906Z,45
2023-02-15T07:25:55.881Z,45
2023-02-15T07:26:55.392Z,45
2023-02-15T07:27:55.595Z,45
2023-02-15T07:28:55.603Z,45
2023-02-15T07:29:55.985Z,45
2023-02-15T07:30:56.314Z,45
2023-02-15T07:31:55.943Z,50
2023-02-15T07:32:56.197Z,50
2023-02-15T07:33:56.087Z,50
2023-02-15T07:34:55.751Z,50
2023-02-15T07:35:55.683Z,50
2023-02-15T07:36:55.670Z,50
2023-02-15T07:37:55.906Z,50
2023-02-15T07:38:55.614Z,50
2023-02-15T07:39:55.656Z,50
2023-02-15T07:40:55.364Z,50
2023-02-15T07:41:55.588Z,50
2023-02-15T07:42:58.534Z,50
2023-02-15T07:43:55.808Z,50
2023-02-15T07:44:55.543Z,50
2023-02-15T07:45:55.351Z,50
2023-02-15T07:46:55.861Z,55
2023-02-15T07:47:55.744Z,55
2023-02-15T07:48:55.001Z,55
2023-02-15T07:49:55.798Z,55
2023-02-15T07:50:55.148Z,55
2023-02-15T07:51:55.421Z,55
2023-02-15T07:52:55.393Z,55
2023-02-15T07:53:55.351Z,55
2023-02-15T07:54:55.336Z,55
2023-02-15T07:55:55.373Z,55
2023-02-15T07:56:55.318Z,55
2023-02-15T07:57:55.329Z,55
2023-02-15T07:58:55.146Z,55
2023-02-15T07:59:55.496Z,55
2023-02-15T08:00:55.216Z,55
2023-02-15T08:01:55.214Z,55
2023-02-15T08:02:55.603Z,60
2023-02-15T08:03:56.156Z,60
2023-02-15T08:04:55.350Z,60
2023-02-15T08:05:55.764Z,60
2023-02-15T08:06:55.117Z,60
2023-02-15T08:07:55.352Z,60
2023-02-15T08:08:54.574Z,60
2023-02-15T08:09:55.069Z,60
2023-02-15T08:10:54.800Z,60
2023-02-15T08:11:55.294Z,60
2023-02-15T08:12:54.998Z,60
2023-02-15T08:13:55.256Z,60
2023-02-15T08:14:54.457Z,60
2023-02-15T08:15:55.121Z,60
2023-02-15T08:16:55.377Z,60
2023-02-15T08:17:55.178Z,60
2023-02-15T08:18:54.903Z,60
2023-02-15T08:19:54.621Z,60
2023-02-15T08:20:54.623Z,60
2023-02-15T08:21:55.231Z,65
2023-02-15T08:22:54.596Z,65
2023-02-15T08:23:54.573Z,65
2023-02-15T08:24:54.547Z,65
2023-02-15T08:25:54.806Z,65
2023-02-15T08:26:54.526Z,65
2023-02-15T08:27:54.997Z,65
2023-02-15T08:28:54.256Z,65
2023-02-15T08:29:55.127Z,65
2023-02-15T08:30:54.932Z,65
2023-02-15T08:31:55.550Z,65
2023-02-15T08:32:54.905Z,65
2023-02-15T08:33:54.959Z,65
2023-02-15T08:34:54.866Z,65
2023-02-15T08:35:54.593Z,65
2023-02-15T08:36:54.696Z,65
2023-02-15T08:37:55.008Z,65
2023-02-15T08:38:54.803Z,65
2023-02-15T08:39:54.802Z,65
2023-02-15T08:40:54.812Z,65
2023-02-15T08:41:54.971Z,65
2023-02-15T08:42:54.813Z,65
2023-02-15T08:43:54.579Z,65
2023-02-15T08:44:56.648Z,65
2023-02-15T08:45:54.801Z,65
2023-02-15T08:46:54.447Z,65
2023-02-15T08:47:54.670Z,65
2023-02-15T08:48:54.765Z,65
2023-02-15T08:49:54.382Z,65
2023-02-15T08:50:53.838Z,65
2023-02-15T08:51:53.843Z,65
2023-02-15T08:52:54.096Z,65
2023-02-15T08:53:54.830Z,70
2023-02-15T08:54:54.536Z,70
2023-02-15T08:55:54.000Z,70
2023-02-15T08:56:54.024Z,70
2023-02-15T08:57:54.250Z,70
2023-02-15T08:58:53.957Z,70
2023-02-15T08:59:54.234Z,70
2023-02-15T09:00:57.279Z,70
2023-02-15T09:01:54.287Z,70
2023-02-15T09:02:54.172Z,70
2023-02-15T09:03:54.191Z,70
2023-02-15T09:04:53.865Z,70
2023-02-15T09:05:54.093Z,70
2023-02-15T09:06:56.485Z,75
2023-02-15T09:07:54.303Z,75
2023-02-15T09:08:54.065Z,75
2023-02-15T09:09:54.394Z,75
2023-02-15T09:10:54.266Z,75
2023-02-15T09:12:01.243Z,75
2023-02-15T09:12:53.949Z,75
2023-02-15T09:13:53.802Z,75
2023-02-15T09:14:53.693Z,75
2023-02-15T09:15:53.686Z,75
2023-02-15T09:16:54.447Z,75
2023-02-15T09:17:54.132Z,75
2023-02-15T09:18:54.124Z,75
2023-02-15T09:19:54.101Z,75
2023-02-15T09:20:53.828Z,75
2023-02-15T09:21:53.621Z,75
2023-02-15T09:22:56.943Z,75
2023-02-15T09:23:54.172Z,75
2023-02-15T09:24:53.858Z,75
2023-02-15T09:25:54.111Z,75
2023-02-15T09:26:53.780Z,75
2023-02-15T09:27:53.710Z,75
2023-02-15T09:28:53.688Z,75
2023-02-15T09:29:54.017Z,75
2023-02-15T09:30:54.506Z,75
2023-02-15T09:31:54.135Z,75
2023-02-15T09:32:53.636Z,75
2023-02-15T09:33:53.926Z,75
2023-02-15T09:34:53.629Z,75
2023-02-15T09:35:53.586Z,75
2023-02-15T09:36:53.324Z,75
2023-02-15T09:37:53.473Z,75
2023-02-15T09:38:53.522Z,75
2023-02-15T09:39:55.998Z,75
2023-02-15T09:40:53.537Z,75
2023-02-15T09:41:53.898Z,75
2023-02-15T09:42:53.467Z,75
2023-02-15T09:43:53.202Z,75
2023-02-15T09:44:53.436Z,75
2023-02-15T09:45:53.483Z,75
2023-02-15T09:46:53.658Z,75
2023-02-15T09:47:53.514Z,75
2023-02-15T09:48:53.390Z,75
2023-02-15T09:49:53.349Z,75
2023-02-15T09:50:53.332Z,75
2023-02-15T09:51:53.579Z,75
2023-02-15T09:52:53.044Z,75
2023-02-15T09:53:53.456Z,75
2023-02-15T09:54:53.276Z,75
2023-02-15T09:55:53.553Z,75
2023-02-15T09:56:53.521Z,75
2023-02-15T09:57:53.670Z,75
2023-02-15T09:58:53.265Z,75
2023-02-15T09:59:53.198Z,75
2023-02-15T10:00:53.223Z,75
2023-02-15T10:01:53.390Z,75
2023-02-15T10:02:53.429Z,75
2023-02-15T10:03:53.018Z,75
2023-02-15T10:04:53.817Z,75
2023-02-15T10:05:52.890Z,75
2023-02-15T10:06:53.355Z,75
2023-02-15T10:07:53.339Z,75
2023-02-15T10:08:52.807Z,75
2023-02-15T10:09:53.061Z,75
2023-02-15T10:10:53.143Z,75
2023-02-15T10:11:53.020Z,75
2023-02-15T10:12:52.868Z,75
2023-02-15T10:13:53.500Z,75
2023-02-15T10:14:52.981Z,75
2023-02-15T10:15:52.444Z,75
2023-02-15T10:16:53.059Z,75
2023-02-15T10:17:52.959Z,75
2023-02-15T10:18:52.906Z,75
2023-02-15T10:19:53.225Z,75
2023-02-15T10:20:53.145Z,75
2023-02-15T10:21:52.897Z,75
2023-02-15T10:22:52.851Z,75
2023-02-15T10:23:52.572Z,75
2023-02-15T10:24:58.099Z,75
2023-02-15T10:25:52.624Z,75
2023-02-15T10:26:52.533Z,80
2023-02-15T10:27:52.777Z,80
2023-02-15T10:28:52.800Z,80
2023-02-15T10:29:53.232Z,80
2023-02-15T10:30:53.385Z,80
2023-02-15T10:31:53.592Z,85
2023-02-15T10:32:52.947Z,85
2023-02-15T10:33:52.785Z,85
2023-02-15T10:34:52.457Z,85
2023-02-15T10:35:55.318Z,85
2023-02-15T10:36:52.161Z,85
2023-02-15T10:37:52.906Z,85
2023-02-15T10:38:52.884Z,85
2023-02-15T10:39:52.879Z,85
2023-02-15T10:40:52.600Z,85
2023-02-15T10:41:54.430Z,85
2023-02-15T10:42:52.741Z,85
2023-02-15T10:43:52.554Z,85
2023-02-15T10:44:52.414Z,85
2023-02-15T10:45:53.250Z,85
2023-02-15T10:46:52.258Z,85
2023-02-15T10:47:52.364Z,85
2023-02-15T10:48:52.521Z,85
2023-02-15T10:49:53.074Z,85
2023-02-15T10:50:53.078Z,85
2023-02-15T10:51:53.329Z,85
2023-02-15T10:52:52.778Z,85
2023-02-15T10:53:53.282Z,85
2023-02-15T10:54:53.093Z,85
2023-02-15T10:55:53.281Z,85
2023-02-15T10:56:52.993Z,85
2023-02-15T10:57:53.007Z,85
2023-02-15T10:58:52.994Z,85
2023-02-15T10:59:52.685Z,85
2023-02-15T11:00:53.200Z,85
2023-02-15T11:01:53.651Z,85
2023-02-15T11:02:52.760Z,85
2023-02-15T11:03:52.904Z,85
2023-02-15T11:04:53.237Z,85
2023-02-15T11:05:52.875Z,85
2023-02-15T11:06:52.864Z,85
2023-02-15T11:07:52.319Z,85
2023-02-15T11:08:52.299Z,85
2023-02-15T11:09:52.596Z,85
2023-02-15T11:10:53.090Z,85
2023-02-15T11:11:52.545Z,85
2023-02-15T11:12:52.547Z,85
2023-02-15T11:13:52.921Z,85
2023-02-15T11:14:53.436Z,85
2023-02-15T11:15:53.764Z,85
2023-02-15T11:16:53.513Z,85
2023-02-15T11:17:53.483Z,85
2023-02-15T11:18:53.370Z,85
2023-02-15T11:19:53.362Z,85
2023-02-15T11:20:52.804Z,85
2023-02-15T11:21:53.088Z,85
2023-02-15T11:22:53.307Z,85
2023-02-15T11:23:53.117Z,85
2023-02-15T11:24:53.283Z,85
2023-02-15T11:25:53.059Z,85
2023-02-15T11:26:52.763Z,85
2023-02-15T11:27:54.668Z,85
2023-02-15T11:28:52.972Z,85
2023-02-15T11:29:52.782Z,85
2023-02-15T11:30:53.366Z,85
2023-02-15T11:31:53.314Z,85
2023-02-15T11:32:53.230Z,85
2023-02-15T11:33:53.382Z,85
2023-02-15T11:34:53.154Z,85
2023-02-15T11:35:52.865Z,85
2023-02-15T11:36:53.162Z,85
2023-02-15T11:37:53.112Z,85
2023-02-15T11:38:52.844Z,85
2023-02-15T11:39:53.342Z,85
2023-02-15T11:40:52.838Z,85
2023-02-15T11:41:52.543Z,85
2023-02-15T11:42:53.191Z,85
2023-02-15T11:43:53.064Z,85
2023-02-15T11:44:53.279Z,85
2023-02-15T11:45:53.370Z,85
2023-02-15T11:46:53.386Z,85
2023-02-15T11:47:53.003Z,85
2023-02-15T11:48:53.293Z,85
2023-02-15T11:49:53.367Z,85
2023-02-15T11:50:53.224Z,85
2023-02-15T11:51:53.207Z,85
2023-02-15T11:52:52.678Z,85
2023-02-15T11:53:53.341Z,85
2023-02-15T11:54:53.033Z,85
2023-02-15T11:55:53.302Z,85
2023-02-15T11:56:52.765Z,85
2023-02-15T11:57:53.267Z,85
2023-02-15T11:58:53.508Z,85
2023-02-15T11:59:53.522Z,80
2023-02-15T12:00:52.971Z,80
2023-02-15T12:01:53.236Z,80
2023-02-15T12:02:53.287Z,80
2023-02-15T12:03:53.642Z,80
2023-02-15T12:04:53.007Z,80
2023-02-15T12:05:53.563Z,80
2023-02-15T12:06:53.423Z,80
2023-02-15T12:07:53.164Z,80
2023-02-15T12:08:52.636Z,80
2023-02-15T12:09:52.906Z,80
2023-02-15T12:10:52.883Z,80
2023-02-15T12:11:52.898Z,80
2023-02-15T12:12:53.371Z,80
2023-02-15T12:13:53.337Z,80
2023-02-15T12:14:53.078Z,80
2023-02-15T12:15:53.090Z,80
2023-02-15T12:16:53.056Z,80
2023-02-15T12:17:52.776Z,80
2023-02-15T12:18:52.773Z,80
2023-02-15T12:19:53.277Z,80
2023-02-15T12:20:53.051Z,80
2023-02-15T12:21:53.570Z,80
2023-02-15T12:22:53.003Z,80
2023-02-15T12:23:53.236Z,80
2023-02-15T12:24:53.186Z,80
2023-02-15T12:25:52.959Z,80
2023-02-15T12:26:53.172Z,80
2023-02-15T12:27:53.172Z,80
2023-02-15T12:28:52.653Z,75
2023-02-15T12:29:53.229Z,75
2023-02-15T12:30:53.251Z,75
2023-02-15T12:31:53.917Z,75
2023-02-15T12:32:53.118Z,75
2023-02-15T12:33:53.137Z,75
2023-02-15T12:34:52.833Z,75
2023-02-15T12:35:52.554Z,75
2023-02-15T12:36:52.321Z,75
2023-02-15T12:37:53.142Z,75
2023-02-15T12:38:59.165Z,75
2023-02-15T12:39:53.020Z,75
2023-02-15T12:40:52.494Z,75
2023-02-15T12:41:52.756Z,75
2023-02-15T12:42:52.749Z,75
2023-02-15T12:43:52.754Z,75
2023-02-15T12:44:52.441Z,75
2023-02-15T12:45:52.726Z,75
2023-02-15T12:46:54.810Z,75
2023-02-15T12:47:52.422Z,75
2023-02-15T12:48:52.663Z,75
2023-02-15T12:49:57.074Z,75
2023-02-15T12:50:59.655Z,75
2023-02-15T12:51:52.730Z,75
2023-02-15T12:52:52.663Z,75
2023-02-15T12:53:54.876Z,75
2023-02-15T12:54:52.607Z,75
2023-02-15T12:55:55.350Z,75
2023-02-15T12:56:52.605Z,75
2023-02-15T12:57:52.295Z,75
2023-02-15T12:58:52.030Z,75
2023-02-15T12:59:54.357Z,70
2023-02-15T13:00:52.893Z,70
2023-02-15T13:01:52.748Z,70
2023-02-15T13:02:52.502Z,70
2023-02-15T13:03:52.726Z,70
2023-02-15T13:04:52.729Z,70
2023-02-15T13:05:54.459Z,70
2023-02-15T13:06:52.774Z,70
2023-02-15T13:07:51.911Z,70
2023-02-15T13:08:52.718Z,70
2023-02-15T13:09:52.761Z,70
2023-02-15T13:10:51.879Z,70
2023-02-15T13:11:52.425Z,70
2023-02-15T13:12:52.405Z,70
2023-02-15T13:13:52.614Z,70
2023-02-15T13:14:52.413Z,70
2023-02-15T13:15:52.576Z,70
2023-02-15T13:16:52.878Z,70
2023-02-15T13:17:52.040Z,70
2023-02-15T13:18:52.301Z,70
2023-02-15T13:19:52.276Z,70
2023-02-15T13:20:52.535Z,70
2023-02-15T13:21:52.250Z,70
2023-02-15T13:22:52.529Z,70
2023-02-15T13:23:52.688Z,70
2023-02-15T13:24:54.107Z,70
2023-02-15T13:25:52.657Z,70
2023-02-15T13:26:52.485Z,70
2023-02-15T13:27:51.956Z,70
2023-02-15T13:28:52.426Z,70
2023-02-15T13:29:52.242Z,70
2023-02-15T13:30:52.247Z,70
2023-02-15T13:31:52.841Z,70
2023-02-15T13:32:51.871Z,70
2023-02-15T13:33:52.110Z,70
2023-02-15T13:34:52.087Z,70
2023-02-15T13:35:51.839Z,70
2023-02-15T13:36:52.078Z,65
2023-02-15T13:37:52.306Z,65
2023-02-15T13:38:52.804Z,65
2023-02-15T13:39:52.492Z,65
2023-02-15T13:40:55.450Z,65
2023-02-15T13:41:53.065Z,65
2023-02-15T13:42:52.456Z,65
2023-02-15T13:43:52.988Z,65
2023-02-15T13:44:52.185Z,65
2023-02-15T13:45:52.530Z,65
2023-02-15T13:46:53.328Z,65
2023-02-15T13:47:52.910Z,65
2023-02-15T13:48:59.830Z,65
2023-02-15T13:49:52.605Z,65
2023-02-15T13:50:52.617Z,65
2023-02-15T13:51:52.847Z,65
2023-02-15T13:52:52.588Z,65
2023-02-15T13:53:52.818Z,65
2023-02-15T13:54:52.302Z,65
2023-02-15T13:55:52.557Z,65
2023-02-15T13:56:52.868Z,65
2023-02-15T13:57:52.865Z,65
2023-02-15T13:58:52.875Z,65
2023-02-15T13:59:54.551Z,65
2023-02-15T14:00:52.741Z,65
2023-02-15T14:01:52.483Z,65
2023-02-15T14:02:52.776Z,65
2023-02-15T14:03:52.526Z,65
2023-02-15T14:04:52.430Z,65
2023-02-15T14:05:52.157Z,65
2023-02-15T14:06:52.670Z,65
2023-02-15T14:07:52.400Z,65
2023-02-15T14:08:52.127Z,65
2023-02-15T14:09:52.358Z,65
2023-02-15T14:10:52.348Z,65
2023-02-15T14:11:52.821Z,65
2023-02-15T14:12:51.860Z,65
2023-02-15T14:13:52.410Z,65
2023-02-15T14:14:52.034Z,65
2023-02-15T14:15:54.937Z,65
2023-02-15T14:17:12.725Z,65
2023-02-15T14:17:52.281Z,65
2023-02-15T14:18:51.984Z,65
2023-02-15T14:19:52.505Z,65
2023-02-15T14:20:52.205Z,65
2023-02-15T14:21:51.970Z,65
2023-02-15T14:22:52.507Z,65
2023-02-15T14:23:52.445Z,65
2023-02-15T14:24:52.480Z,65
2023-02-15T14:25:51.902Z,65
2023-02-15T14:26:51.970Z,65
2023-02-15T14:27:55.348Z,65
2023-02-15T14:28:52.411Z,65
2023-02-15T14:29:52.482Z,65
2023-02-15T14:30:53.809Z,65
2023-02-15T14:31:53.280Z,65
2023-02-15T14:32:52.717Z,65
2023-02-15T14:33:52.037Z,65
2023-02-15T14:34:51.763Z,65
2023-02-15T14:35:52.014Z,65
2023-02-15T14:36:52.001Z,65
2023-02-15T14:37:52.312Z,65
2023-02-15T14:38:51.474Z,65
2023-02-15T14:39:51.972Z,60
2023-02-15T14:40:52.214Z,60
2023-02-15T14:41:52.584Z,60
2023-02-15T14:42:52.826Z,60
2023-02-15T14:43:52.849Z,60
2023-02-15T14:44:53.081Z,60